42TE weather

CHI St. Luke's Hospital Heliport
Sugarland, Texas, United States

Public forecast

Using degrees Fahrenheit for public forecast. Weather courtesy of forecast.io.

METAR (pilot weather report)

Closest report is Sugar Land Regional Airport, 2.2 nm (4.0 km) WNW. Retrieved 2019/07/20 14:33 UTC (20 minutes ago):

KSGR 201433Z 20007KT 10SM BKN020 31/26 A3001 RMK AO2 T03060256

TAF (pilot weather forecast)

Closest forecast is Sugar Land Regional Airport, 2.2 nm (4.0 km) WNW. Retrieved 2019/07/20 12:33 UTC (2 hours ago):

TAF KSGR 201130Z 2012/2112 18005KT P6SM SCT018 BKN200 FM201500 16006KT P6SM SCT018 BKN045 FM202100 16011KT P6SM FEW035 SCT100 FM210100 15008KT P6SM SCT035 BKN150 FM211000 00000KT P6SM FEW020 SCT150